createdAt,value
2019-01-17T00:01:37.410Z,99.90
2019-01-17T00:04:08.666Z,99.90
2019-01-17T00:06:45.808Z,99.90
2019-01-17T00:09:33.430Z,99.90
2019-01-17T00:12:07.185Z,99.90
2019-01-17T00:14:38.623Z,99.90
2019-01-17T00:17:27.881Z,99.90
2019-01-17T00:20:08.054Z,99.90
2019-01-17T00:22:45.122Z,99.90
2019-01-17T00:25:19.074Z,99.90
2019-01-17T00:27:50.376Z,99.90
2019-01-17T00:30:36.617Z,99.90
2019-01-17T00:33:25.989Z,99.90
2019-01-17T00:36:06.363Z,99.90
2019-01-17T00:38:44.035Z,99.90
2019-01-17T00:41:18.102Z,99.90
2019-01-17T00:43:49.399Z,99.90
2019-01-17T00:46:21.678Z,99.90
2019-01-17T00:48:59.130Z,99.90
2019-01-17T00:51:48.436Z,99.90
2019-01-17T00:54:22.723Z,99.90
2019-01-17T00:57:10.391Z,99.90
2019-01-17T00:59:47.505Z,99.90
2019-01-17T01:02:18.952Z,99.90
2019-01-17T01:04:58.943Z,99.90
2019-01-17T01:07:48.333Z,99.90
2019-01-17T01:10:25.534Z,99.90
2019-01-17T01:13:12.783Z,99.90
2019-01-17T01:15:58.689Z,99.90
2019-01-17T01:18:30.074Z,99.90
2019-01-17T01:21:18.620Z,99.90
2019-01-17T01:23:50.935Z,99.90
2019-01-17T01:26:22.162Z,99.90
2019-01-17T01:28:56.302Z,99.90
2019-01-17T01:31:28.039Z,99.90
2019-01-17T01:33:59.437Z,99.90
2019-01-17T01:36:50.025Z,99.90
2019-01-17T01:39:21.327Z,99.90
2019-01-17T01:41:52.754Z,99.90
2019-01-17T01:44:40.510Z,99.90
2019-01-17T01:47:11.832Z,99.90
2019-01-17T01:49:52.177Z,99.90
2019-01-17T01:52:39.915Z,99.90
2019-01-17T01:55:09.665Z,99.90
2019-01-17T01:57:39.427Z,99.90
2019-01-17T02:00:11.392Z,99.90
2019-01-17T02:02:41.158Z,99.90
2019-01-17T02:05:10.999Z,99.90
2019-01-17T02:07:40.769Z,99.90
2019-01-17T02:10:11.605Z,99.90
2019-01-17T02:12:41.449Z,99.90
2019-01-17T02:15:11.186Z,99.90
2019-01-17T02:17:40.995Z,99.90
2019-01-17T02:20:11.422Z,99.90
2019-01-17T02:22:41.322Z,99.90
2019-01-17T02:25:11.072Z,99.90
2019-01-17T02:27:40.815Z,99.90
2019-01-17T02:30:12.320Z,99.90
2019-01-17T02:32:42.158Z,99.90
2019-01-17T02:35:12.825Z,99.90
2019-01-17T02:37:42.493Z,99.90
2019-01-17T02:40:12.559Z,99.90
2019-01-17T02:42:42.212Z,99.90
2019-01-17T02:45:13.466Z,99.90
2019-01-17T02:47:43.312Z,99.90
2019-01-17T02:50:14.076Z,99.90
2019-01-17T02:52:44.719Z,99.90
2019-01-17T02:55:14.398Z,99.90
2019-01-17T02:57:44.133Z,99.90
2019-01-17T03:00:15.991Z,99.90
2019-01-17T03:02:45.819Z,99.90
2019-01-17T03:05:15.642Z,99.90
2019-01-17T03:07:45.423Z,99.90
2019-01-17T03:10:16.264Z,99.90
2019-01-17T03:12:46.921Z,99.90
2019-01-17T03:15:16.739Z,99.90
2019-01-17T03:17:46.607Z,99.90
2019-01-17T03:20:16.411Z,99.90
2019-01-17T03:22:46.176Z,99.90
2019-01-17T03:25:15.929Z,99.90
2019-01-17T03:27:45.764Z,99.90
2019-01-17T03:30:18.509Z,99.90
2019-01-17T03:32:48.314Z,99.90
2019-01-17T03:35:18.959Z,99.90
2019-01-17T03:37:49.526Z,99.90
2019-01-17T03:40:19.345Z,99.90
2019-01-17T03:42:49.002Z,99.90
2019-01-17T03:45:18.743Z,99.90
2019-01-17T03:47:48.512Z,99.90
2019-01-17T03:50:18.258Z,99.90
2019-01-17T03:52:48.054Z,99.90
2019-01-17T03:55:18.765Z,99.90
2019-01-17T03:57:48.430Z,99.90
2019-01-17T04:00:19.388Z,99.90
2019-01-17T04:02:49.209Z,99.90
2019-01-17T04:05:19.862Z,99.90
2019-01-17T04:07:50.474Z,99.90
2019-01-17T04:10:20.152Z,99.90
2019-01-17T04:12:51.292Z,99.90
2019-01-17T04:15:21.167Z,99.90
2019-01-17T04:17:50.907Z,99.90
2019-01-17T04:20:20.670Z,99.90
2019-01-17T04:22:51.329Z,99.90
2019-01-17T04:25:21.080Z,99.90
2019-01-17T04:27:50.745Z,99.90
2019-01-17T04:30:20.563Z,99.90
2019-01-17T04:32:50.709Z,99.90
2019-01-17T04:35:20.411Z,99.90
2019-01-17T04:37:50.132Z,99.90
2019-01-17T04:40:19.998Z,99.90
2019-01-17T04:42:49.740Z,99.90
2019-01-17T04:45:19.636Z,99.90
2019-01-17T04:47:49.289Z,99.90
2019-01-17T04:50:19.080Z,99.90
2019-01-17T04:52:48.851Z,99.90
2019-01-17T04:55:18.534Z,99.90
2019-01-17T04:57:48.215Z,99.90
2019-01-17T05:00:19.578Z,99.90
2019-01-17T05:02:49.412Z,99.90
2019-01-17T05:05:20.238Z,99.90
2019-01-17T05:07:50.006Z,99.90
2019-01-17T05:10:19.829Z,99.90
2019-01-17T05:12:49.875Z,99.90
2019-01-17T05:15:20.224Z,99.90
2019-01-17T05:17:49.974Z,99.90
2019-01-17T05:20:19.811Z,99.90
2019-01-17T05:22:49.512Z,99.90
2019-01-17T05:25:19.274Z,99.90
2019-01-17T05:27:49.171Z,99.90
2019-01-17T05:30:19.833Z,99.90
2019-01-17T05:32:49.604Z,99.90
2019-01-17T05:35:19.347Z,99.90
2019-01-17T05:37:49.102Z,99.90
2019-01-17T05:40:20.168Z,99.90
2019-01-17T05:42:49.771Z,99.90
2019-01-17T05:45:19.612Z,99.90
2019-01-17T05:47:49.344Z,99.90
2019-01-17T05:50:19.033Z,99.90
2019-01-17T05:52:50.540Z,99.90
2019-01-17T05:55:20.456Z,99.90
2019-01-17T05:57:51.277Z,99.90
2019-01-17T06:00:21.422Z,99.90
2019-01-17T06:02:51.352Z,99.90
2019-01-17T06:05:21.178Z,99.90
2019-01-17T06:07:50.950Z,99.90
2019-01-17T06:10:21.558Z,99.90
2019-01-17T06:12:52.181Z,99.90
2019-01-17T06:15:23.107Z,99.90
2019-01-17T06:17:52.919Z,99.90
2019-01-17T06:20:22.601Z,99.90
2019-01-17T06:22:52.286Z,99.90
2019-01-17T06:25:27.966Z,99.90
2019-01-17T06:27:54.338Z,99.90
2019-01-17T06:30:25.100Z,99.90
2019-01-17T06:32:54.779Z,99.90
2019-01-17T06:35:25.091Z,99.90
2019-01-17T06:37:54.783Z,99.90
2019-01-17T06:40:27.193Z,99.90
2019-01-17T06:42:56.979Z,99.90
2019-01-17T06:45:26.718Z,99.90
2019-01-17T06:47:56.505Z,99.90
2019-01-17T06:50:26.187Z,99.60
2019-01-17T06:52:55.947Z,99.20
2019-01-17T06:55:26.442Z,98.70
2019-01-17T06:57:57.064Z,98.70
2019-01-17T07:00:26.868Z,98.10
2019-01-17T07:02:56.480Z,97.90
2019-01-17T07:05:26.987Z,98.50
2019-01-17T07:07:56.676Z,99.70
2019-01-17T07:10:26.335Z,99.90
2019-01-17T07:12:55.993Z,99.90
2019-01-17T07:15:25.741Z,99.90
2019-01-17T07:17:55.449Z,99.90
2019-01-17T07:20:25.247Z,99.90
2019-01-17T07:22:55.118Z,99.90
2019-01-17T07:25:24.920Z,99.90
2019-01-17T07:27:54.538Z,99.90
2019-01-17T07:30:25.040Z,99.90
2019-01-17T07:32:54.795Z,99.90
2019-01-17T07:35:24.471Z,99.90
2019-01-17T07:37:54.163Z,99.90
2019-01-17T07:40:23.857Z,99.90
2019-01-17T07:42:53.600Z,99.90
2019-01-17T07:45:25.712Z,99.90
2019-01-17T07:47:55.458Z,99.90
2019-01-17T07:50:25.222Z,99.90
2019-01-17T07:52:54.983Z,99.90
2019-01-17T07:55:24.639Z,99.90
2019-01-17T07:57:55.551Z,99.90
2019-01-17T08:00:25.556Z,99.90
2019-01-17T08:02:55.652Z,99.90
2019-01-17T08:05:25.319Z,99.90
2019-01-17T08:07:55.134Z,99.90
2019-01-17T08:10:24.793Z,99.90
2019-01-17T08:12:54.478Z,99.90
2019-01-17T08:15:24.221Z,99.90
2019-01-17T08:17:54.033Z,99.90
2019-01-17T08:20:24.267Z,99.90
2019-01-17T08:22:54.038Z,99.90
2019-01-17T08:25:23.784Z,99.90
2019-01-17T08:27:53.894Z,99.90
2019-01-17T08:30:25.596Z,99.90
2019-01-17T08:32:55.600Z,99.90
2019-01-17T08:35:25.349Z,99.90
2019-01-17T08:37:55.110Z,99.90
2019-01-17T08:40:27.173Z,99.90
2019-01-17T08:42:56.876Z,99.90
2019-01-17T08:45:26.607Z,99.90
2019-01-17T08:47:56.447Z,99.90
2019-01-17T08:50:26.173Z,99.90
2019-01-17T08:52:56.004Z,99.90
2019-01-17T08:55:25.837Z,99.90
2019-01-17T08:57:55.513Z,99.90
2019-01-17T09:00:26.339Z,99.90
2019-01-17T09:02:56.038Z,99.90
2019-01-17T09:05:25.850Z,99.90
2019-01-17T09:07:55.622Z,99.90
2019-01-17T09:10:27.556Z,99.90
2019-01-17T09:12:57.384Z,99.90
2019-01-17T09:15:29.475Z,99.90
2019-01-17T09:17:59.238Z,99.90
2019-01-17T09:20:29.160Z,99.90
2019-01-17T09:22:58.895Z,99.90
2019-01-17T09:25:29.670Z,99.90
2019-01-17T09:27:59.504Z,99.90
2019-01-17T09:30:29.225Z,99.90
2019-01-17T09:32:58.943Z,99.90
2019-01-17T09:35:28.699Z,99.90
2019-01-17T09:37:58.435Z,99.90
2019-01-17T09:40:28.203Z,99.90
2019-01-17T09:42:58.006Z,99.90
2019-01-17T09:45:27.840Z,99.90
2019-01-17T09:47:57.576Z,99.90
2019-01-17T09:50:27.338Z,99.90
2019-01-17T09:52:57.067Z,99.90
2019-01-17T09:55:26.833Z,99.90
2019-01-17T09:57:56.441Z,99.90
2019-01-17T10:00:27.910Z,99.90
2019-01-17T10:02:57.639Z,99.20
2019-01-17T10:05:27.536Z,99.40
2019-01-17T10:07:57.291Z,96.70
2019-01-17T10:10:27.056Z,95.50
2019-01-17T10:12:56.971Z,92.40
2019-01-17T10:15:41.651Z,92.40
2019-01-17T10:18:19.992Z,93.10
2019-01-17T10:20:58.516Z,90.20
2019-01-17T10:23:34.082Z,90.10
2019-01-17T10:26:09.698Z,90.10
2019-01-17T10:29:00.003Z,86.90
2019-01-17T10:31:35.388Z,86.60
2019-01-17T10:34:18.200Z,86.80
2019-01-17T10:37:05.897Z,90.40
2019-01-17T10:39:53.301Z,91.20
2019-01-17T10:42:29.102Z,90.60
2019-01-17T10:45:13.620Z,90.10
2019-01-17T10:48:00.961Z,90.90
2019-01-17T10:50:33.626Z,89.60
2019-01-17T10:53:09.081Z,90.40
2019-01-17T10:56:04.378Z,90.40
2019-01-17T10:58:45.823Z,88.70
2019-01-17T11:01:28.098Z,90.20
2019-01-17T11:04:10.758Z,89.40
2019-01-17T11:06:46.106Z,91.10
2019-01-17T11:09:36.609Z,89.20
2019-01-17T11:12:15.046Z,91.50
2019-01-17T11:14:56.390Z,93.60
2019-01-17T11:17:31.667Z,94.10
2019-01-17T11:20:11.109Z,95.40
2019-01-17T11:22:43.801Z,95.20
2019-01-17T11:25:39.124Z,95.60
2019-01-17T11:28:37.360Z,97.10
2019-01-17T11:31:35.525Z,97.90
2019-01-17T11:34:13.717Z,98.00
2019-01-17T11:36:58.057Z,98.80
2019-01-17T11:39:31.667Z,99.90
2019-01-17T11:42:14.065Z,99.90
2019-01-17T11:45:07.606Z,99.90
2019-01-17T11:47:45.853Z,99.90
2019-01-17T11:50:21.145Z,99.90
2019-01-17T11:53:08.717Z,99.90
2019-01-17T11:55:41.485Z,99.90
2019-01-17T11:58:14.275Z,99.90
2019-01-17T12:00:52.696Z,99.90
2019-01-17T12:03:28.693Z,99.90
2019-01-17T12:05:58.654Z,99.90
2019-01-17T12:08:28.315Z,99.90
2019-01-17T12:10:58.083Z,99.90
2019-01-17T12:13:27.761Z,99.90
2019-01-17T12:15:57.429Z,99.90
2019-01-17T12:18:27.028Z,99.90
2019-01-17T12:20:56.733Z,99.90
2019-01-17T12:23:26.406Z,99.90
2019-01-17T12:25:56.145Z,99.90
2019-01-17T12:28:25.807Z,99.90
2019-01-17T12:30:55.551Z,99.90
2019-01-17T12:33:25.457Z,99.90
2019-01-17T12:35:55.733Z,99.90
2019-01-17T12:38:25.477Z,99.90
2019-01-17T12:40:55.245Z,99.90
2019-01-17T12:43:25.081Z,99.90
2019-01-17T12:45:55.098Z,99.90
2019-01-17T12:48:24.896Z,99.90
2019-01-17T12:50:54.654Z,99.90
2019-01-17T12:53:24.552Z,99.90
2019-01-17T12:55:54.214Z,99.90
2019-01-17T12:58:23.959Z,99.90
2019-01-17T13:00:53.703Z,99.90
2019-01-17T13:03:23.412Z,99.90
2019-01-17T13:05:53.136Z,99.90
2019-01-17T13:08:22.886Z,99.90
2019-01-17T13:10:52.621Z,99.90
2019-01-17T13:13:22.384Z,99.90
2019-01-17T13:15:53.017Z,99.90
2019-01-17T13:18:22.776Z,99.90
2019-01-17T13:20:52.877Z,99.90
2019-01-17T13:23:22.621Z,99.90
2019-01-17T13:25:52.362Z,99.90
2019-01-17T13:28:22.185Z,99.90
2019-01-17T13:30:51.920Z,99.90
2019-01-17T13:33:23.595Z,99.90
2019-01-17T13:35:54.305Z,99.90
2019-01-17T13:38:23.943Z,99.90
2019-01-17T13:40:53.565Z,99.90
2019-01-17T13:43:23.270Z,99.90
2019-01-17T13:45:53.846Z,99.90
2019-01-17T13:48:23.604Z,99.90
2019-01-17T13:50:53.250Z,99.90
2019-01-17T13:53:23.007Z,99.90
2019-01-17T13:55:52.767Z,99.90
2019-01-17T13:58:22.445Z,99.90
2019-01-17T14:00:52.100Z,99.90
2019-01-17T14:03:21.785Z,99.90
2019-01-17T14:05:51.483Z,99.90
2019-01-17T14:08:21.165Z,99.90
2019-01-17T14:10:51.004Z,99.90
2019-01-17T14:13:20.684Z,99.90
2019-01-17T14:15:50.409Z,99.90
2019-01-17T14:18:20.107Z,99.90
2019-01-17T14:20:49.845Z,99.90
2019-01-17T14:23:19.527Z,99.90
2019-01-17T14:25:49.196Z,99.90
2019-01-17T14:28:18.814Z,99.90
2019-01-17T14:30:48.605Z,99.90
2019-01-17T14:33:18.268Z,99.90
2019-01-17T14:35:48.005Z,99.90
2019-01-17T14:38:17.621Z,99.90
2019-01-17T14:40:47.419Z,99.90
2019-01-17T14:43:17.182Z,99.90
2019-01-17T14:45:46.926Z,99.90
2019-01-17T14:48:16.615Z,99.90
2019-01-17T14:50:46.421Z,99.90
2019-01-17T14:53:16.213Z,99.90
2019-01-17T14:55:46.126Z,99.90
2019-01-17T14:58:15.975Z,99.90
2019-01-17T15:00:46.590Z,99.90
2019-01-17T15:03:17.131Z,99.90
2019-01-17T15:05:47.858Z,99.90
2019-01-17T15:08:17.601Z,99.90
2019-01-17T15:10:47.346Z,99.90
2019-01-17T15:13:17.257Z,99.90
2019-01-17T15:15:46.903Z,99.90
2019-01-17T15:18:16.701Z,99.90
2019-01-17T15:20:46.308Z,99.90
2019-01-17T15:23:16.064Z,99.90
2019-01-17T15:25:45.760Z,99.90
2019-01-17T15:28:15.418Z,99.90
2019-01-17T15:30:45.148Z,99.90
2019-01-17T15:33:14.943Z,99.90
2019-01-17T15:35:44.635Z,99.90
2019-01-17T15:38:15.271Z,99.90
2019-01-17T15:40:45.047Z,99.90
2019-01-17T15:43:14.811Z,99.90
2019-01-17T15:45:44.507Z,99.90
2019-01-17T15:48:15.626Z,99.90
2019-01-17T15:50:45.532Z,99.90
2019-01-17T15:53:16.018Z,99.90
2019-01-17T15:55:45.743Z,99.90
2019-01-17T15:58:15.402Z,99.90
2019-01-17T16:00:45.161Z,99.90
2019-01-17T16:03:14.762Z,99.90
2019-01-17T16:05:44.516Z,99.90
2019-01-17T16:08:14.224Z,99.90
2019-01-17T16:10:44.002Z,99.90
2019-01-17T16:13:14.585Z,99.90
2019-01-17T16:15:44.267Z,99.90
2019-01-17T16:18:13.881Z,99.90
2019-01-17T16:20:43.663Z,99.90
2019-01-17T16:23:13.473Z,99.90
2019-01-17T16:25:43.248Z,99.90
2019-01-17T16:28:13.850Z,99.90
2019-01-17T16:30:43.514Z,99.90
2019-01-17T16:33:14.119Z,99.90
2019-01-17T16:35:43.879Z,99.90
2019-01-17T16:38:13.800Z,99.90
2019-01-17T16:40:43.461Z,99.90
2019-01-17T16:43:14.047Z,99.90
2019-01-17T16:45:43.737Z,99.90
2019-01-17T16:48:13.410Z,99.90
2019-01-17T16:50:43.158Z,99.90
2019-01-17T16:53:13.772Z,99.90
2019-01-17T16:55:43.546Z,99.90
2019-01-17T16:58:13.289Z,99.90
2019-01-17T17:00:43.080Z,99.90
2019-01-17T17:03:12.767Z,99.90
2019-01-17T17:05:42.492Z,99.90
2019-01-17T17:08:13.296Z,99.90
2019-01-17T17:10:43.923Z,99.90
2019-01-17T17:13:13.546Z,99.90
2019-01-17T17:15:43.269Z,99.90
2019-01-17T17:18:12.961Z,99.90
2019-01-17T17:20:42.626Z,99.90
2019-01-17T17:23:20.613Z,99.90
2019-01-17T17:25:50.358Z,99.90
2019-01-17T17:28:20.110Z,99.90
2019-01-17T17:30:49.761Z,99.90
2019-01-17T17:33:19.494Z,99.90
2019-01-17T17:35:51.125Z,99.90
2019-01-17T17:38:20.905Z,99.90
2019-01-17T17:40:50.573Z,99.90
2019-01-17T17:43:20.275Z,99.90
2019-01-17T17:45:51.080Z,99.90
2019-01-17T17:48:20.874Z,99.90
2019-01-17T17:50:50.629Z,99.90
2019-01-17T17:53:21.464Z,99.90
2019-01-17T17:55:51.222Z,99.90
2019-01-17T17:58:20.908Z,99.90
2019-01-17T18:00:55.116Z,99.90
2019-01-17T18:03:24.885Z,99.90
2019-01-17T18:05:54.570Z,99.90
2019-01-17T18:08:24.321Z,99.90
2019-01-17T18:10:54.360Z,99.90
2019-01-17T18:13:24.178Z,99.90
2019-01-17T18:15:53.939Z,99.90
2019-01-17T18:18:23.638Z,99.90
2019-01-17T18:20:53.443Z,99.90
2019-01-17T18:23:23.243Z,99.90
2019-01-17T18:25:54.003Z,99.90
2019-01-17T18:28:23.802Z,99.90
2019-01-17T18:30:53.552Z,99.90
2019-01-17T18:33:24.258Z,99.90
2019-01-17T18:35:54.003Z,99.90
2019-01-17T18:38:23.861Z,99.90
2019-01-17T18:40:53.635Z,99.90
2019-01-17T18:43:23.463Z,99.90
2019-01-17T18:45:53.290Z,99.90
2019-01-17T18:48:22.970Z,99.90
2019-01-17T18:50:53.911Z,99.90
2019-01-17T18:53:23.829Z,99.90
2019-01-17T18:55:53.770Z,99.90
2019-01-17T18:58:23.428Z,99.90
2019-01-17T19:00:53.219Z,99.90
2019-01-17T19:03:23.182Z,99.90
2019-01-17T19:05:53.072Z,99.90
2019-01-17T19:08:22.874Z,99.90
2019-01-17T19:10:52.571Z,99.90
2019-01-17T19:13:22.244Z,99.90
2019-01-17T19:15:52.150Z,99.90
2019-01-17T19:18:22.154Z,99.90
2019-01-17T19:20:52.857Z,99.90
2019-01-17T19:23:23.422Z,99.90
2019-01-17T19:25:53.182Z,99.90
2019-01-17T19:28:22.863Z,99.90
2019-01-17T19:30:52.755Z,99.90
2019-01-17T19:33:22.584Z,99.90
2019-01-17T19:35:52.372Z,99.90
2019-01-17T19:38:22.114Z,99.90
2019-01-17T19:40:51.932Z,99.90
2019-01-17T19:43:21.570Z,99.90
2019-01-17T19:45:51.292Z,99.90
2019-01-17T19:48:20.962Z,99.90
2019-01-17T19:50:50.719Z,99.90
2019-01-17T19:53:20.416Z,99.90
2019-01-17T19:55:50.208Z,99.90
2019-01-17T19:58:20.025Z,99.90
2019-01-17T20:00:49.797Z,99.90
2019-01-17T20:03:19.475Z,99.90
2019-01-17T20:05:49.307Z,99.90
2019-01-17T20:08:19.100Z,99.90
2019-01-17T20:10:48.798Z,99.90
2019-01-17T20:13:18.478Z,99.90
2019-01-17T20:15:49.137Z,99.90
2019-01-17T20:18:18.935Z,99.90
2019-01-17T20:20:48.767Z,99.90
2019-01-17T20:23:18.515Z,99.90
2019-01-17T20:25:48.777Z,99.90
2019-01-17T20:28:18.494Z,99.90
2019-01-17T20:30:48.296Z,99.90
2019-01-17T20:33:18.138Z,99.90
2019-01-17T20:35:47.836Z,99.90
2019-01-17T20:38:17.609Z,99.90
2019-01-17T20:40:47.291Z,99.90
2019-01-17T20:43:17.100Z,99.90
2019-01-17T20:45:46.851Z,99.90
2019-01-17T20:48:16.517Z,99.90
2019-01-17T20:50:46.188Z,99.90
2019-01-17T20:53:16.199Z,99.90
2019-01-17T20:55:47.240Z,99.90
2019-01-17T20:58:16.887Z,99.90
2019-01-17T21:01:01.826Z,99.90
2019-01-17T21:03:32.455Z,99.90
2019-01-17T21:06:02.445Z,99.90
2019-01-17T21:08:32.073Z,99.90
2019-01-17T21:11:01.900Z,99.90
2019-01-17T21:13:31.674Z,99.90
2019-01-17T21:16:01.546Z,99.90
2019-01-17T21:18:31.436Z,99.90
2019-01-17T21:21:01.195Z,99.90
2019-01-17T21:23:30.977Z,99.90
2019-01-17T21:26:00.653Z,99.90
2019-01-17T21:28:30.431Z,99.90
2019-01-17T21:31:00.030Z,99.90
2019-01-17T21:33:30.083Z,99.90
2019-01-17T21:35:59.920Z,99.90
2019-01-17T21:38:29.604Z,99.90
2019-01-17T21:40:59.388Z,99.90
2019-01-17T21:43:30.080Z,99.90
2019-01-17T21:45:59.822Z,99.90
2019-01-17T21:48:29.595Z,99.90
2019-01-17T21:51:00.222Z,99.90
2019-01-17T21:53:29.832Z,99.90
2019-01-17T21:56:00.328Z,99.90
2019-01-17T21:58:30.154Z,99.90
2019-01-17T22:01:00.072Z,99.90
2019-01-17T22:03:29.782Z,99.90
2019-01-17T22:05:59.528Z,99.90
2019-01-17T22:08:29.227Z,99.90
2019-01-17T22:10:58.904Z,99.90
2019-01-17T22:13:28.646Z,99.90
2019-01-17T22:15:59.298Z,99.90
2019-01-17T22:18:29.094Z,99.90
2019-01-17T22:20:58.816Z,99.90
2019-01-17T22:23:28.513Z,99.90
2019-01-17T22:25:58.168Z,99.90
2019-01-17T22:28:27.874Z,99.90
2019-01-17T22:30:57.538Z,99.90
2019-01-17T22:33:27.224Z,99.90
2019-01-17T22:35:57.022Z,99.90
2019-01-17T22:38:26.704Z,99.90
2019-01-17T22:40:56.368Z,99.90
2019-01-17T22:43:26.454Z,99.90
2019-01-17T22:45:56.287Z,99.90
2019-01-17T22:48:27.045Z,99.90
2019-01-17T22:50:57.618Z,99.90
2019-01-17T22:53:27.374Z,99.90
2019-01-17T22:55:57.054Z,99.90
2019-01-17T22:58:26.762Z,99.90
2019-01-17T23:01:00.418Z,99.90
2019-01-17T23:03:32.946Z,99.90
2019-01-17T23:06:02.737Z,99.90
2019-01-17T23:08:32.583Z,99.90
2019-01-17T23:11:02.626Z,99.90
2019-01-17T23:13:32.297Z,99.90
2019-01-17T23:16:02.122Z,99.90
2019-01-17T23:18:31.812Z,99.90
2019-01-17T23:21:01.661Z,99.90
2019-01-17T23:23:31.437Z,99.90
2019-01-17T23:26:01.511Z,99.90
2019-01-17T23:28:31.248Z,99.90
2019-01-17T23:31:01.080Z,99.90
2019-01-17T23:33:30.904Z,99.90
2019-01-17T23:36:00.516Z,99.90
2019-01-17T23:38:30.347Z,99.90
2019-01-17T23:41:00.158Z,99.90
2019-01-17T23:43:29.901Z,99.90
2019-01-17T23:46:00.349Z,99.90
2019-01-17T23:48:30.183Z,99.90
2019-01-17T23:51:00.196Z,99.90
2019-01-17T23:53:29.918Z,99.90
2019-01-17T23:55:59.778Z,99.90
2019-01-17T23:58:29.368Z,99.90
